sensor_id;sensor_type;location;lat;lon;timestamp;P1;durP1;ratioP1;P2;durP2;ratioP2
15929;SDS011;8064;51.142;4.780;2023-01-24T00:01:22;16.30;;;14.13;;
15929;SDS011;8064;51.142;4.780;2023-01-24T00:03:48;17.90;;;14.40;;
15929;SDS011;8064;51.142;4.780;2023-01-24T00:06:14;16.80;;;13.77;;
15929;SDS011;8064;51.142;4.780;2023-01-24T00:08:40;19.13;;;15.37;;
15929;SDS011;8064;51.142;4.780;2023-01-24T00:11:07;16.50;;;14.70;;
15929;SDS011;8064;51.142;4.780;2023-01-24T00:13:35;18.00;;;14.53;;
15929;SDS011;8064;51.142;4.780;2023-01-24T00:18:37;16.87;;;14.10;;
15929;SDS011;8064;51.142;4.780;2023-01-24T00:21:07;16.73;;;14.93;;
15929;SDS011;8064;51.142;4.780;2023-01-24T00:23:37;17.13;;;14.53;;
15929;SDS011;8064;51.142;4.780;2023-01-24T00:26:04;17.97;;;14.60;;
15929;SDS011;8064;51.142;4.780;2023-01-24T00:28:30;16.67;;;13.97;;
15929;SDS011;8064;51.142;4.780;2023-01-24T00:30:57;18.20;;;15.37;;
15929;SDS011;8064;51.142;4.780;2023-01-24T00:33:22;17.93;;;14.77;;
15929;SDS011;8064;51.142;4.780;2023-01-24T00:35:51;17.90;;;14.37;;
15929;SDS011;8064;51.142;4.780;2023-01-24T00:38:18;18.67;;;14.77;;
15929;SDS011;8064;51.142;4.780;2023-01-24T00:40:44;19.27;;;15.03;;
15929;SDS011;8064;51.142;4.780;2023-01-24T00:43:11;16.73;;;13.53;;
15929;SDS011;8064;51.142;4.780;2023-01-24T00:45:37;16.83;;;14.60;;
15929;SDS011;8064;51.142;4.780;2023-01-24T00:48:04;18.27;;;14.70;;
15929;SDS011;8064;51.142;4.780;2023-01-24T00:50:31;17.93;;;14.37;;
15929;SDS011;8064;51.142;4.780;2023-01-24T00:52:57;18.83;;;15.10;;
15929;SDS011;8064;51.142;4.780;2023-01-24T00:55:23;17.70;;;13.90;;
15929;SDS011;8064;51.142;4.780;2023-01-24T00:57:49;17.47;;;13.27;;
15929;SDS011;8064;51.142;4.780;2023-01-24T01:00:15;16.90;;;13.53;;
15929;SDS011;8064;51.142;4.780;2023-01-24T01:02:41;15.70;;;13.13;;
15929;SDS011;8064;51.142;4.780;2023-01-24T01:05:07;16.60;;;14.07;;
15929;SDS011;8064;51.142;4.780;2023-01-24T01:07:33;17.67;;;13.90;;
15929;SDS011;8064;51.142;4.780;2023-01-24T01:09:59;17.47;;;14.10;;
15929;SDS011;8064;51.142;4.780;2023-01-24T01:12:25;16.93;;;13.90;;
15929;SDS011;8064;51.142;4.780;2023-01-24T01:14:51;16.80;;;12.60;;
15929;SDS011;8064;51.142;4.780;2023-01-24T01:17:16;17.70;;;13.83;;
15929;SDS011;8064;51.142;4.780;2023-01-24T01:19:42;17.17;;;13.70;;
15929;SDS011;8064;51.142;4.780;2023-01-24T01:22:08;17.27;;;14.17;;
15929;SDS011;8064;51.142;4.780;2023-01-24T01:24:34;16.03;;;13.47;;
15929;SDS011;8064;51.142;4.780;2023-01-24T01:27:00;16.57;;;14.70;;
15929;SDS011;8064;51.142;4.780;2023-01-24T01:29:26;16.57;;;13.67;;
15929;SDS011;8064;51.142;4.780;2023-01-24T01:31:52;14.53;;;12.33;;
15929;SDS011;8064;51.142;4.780;2023-01-24T01:34:17;17.20;;;13.57;;
15929;SDS011;8064;51.142;4.780;2023-01-24T01:36:43;15.77;;;13.23;;
15929;SDS011;8064;51.142;4.780;2023-01-24T01:39:09;15.27;;;13.40;;
15929;SDS011;8064;51.142;4.780;2023-01-24T01:41:35;18.10;;;13.30;;
15929;SDS011;8064;51.142;4.780;2023-01-24T01:44:17;16.27;;;13.73;;
15929;SDS011;8064;51.142;4.780;2023-01-24T01:47:01;16.63;;;13.20;;
15929;SDS011;8064;51.142;4.780;2023-01-24T01:49:28;18.97;;;13.80;;
15929;SDS011;8064;51.142;4.780;2023-01-24T01:51:56;17.27;;;14.03;;
15929;SDS011;8064;51.142;4.780;2023-01-24T01:54:32;14.70;;;12.60;;
15929;SDS011;8064;51.142;4.780;2023-01-24T01:57:03;15.73;;;13.07;;
15929;SDS011;8064;51.142;4.780;2023-01-24T01:59:34;15.10;;;12.87;;
15929;SDS011;8064;51.142;4.780;2023-01-24T02:02:03;17.73;;;14.07;;
15929;SDS011;8064;51.142;4.780;2023-01-24T02:04:38;16.77;;;13.93;;
15929;SDS011;8064;51.142;4.780;2023-01-24T02:07:16;16.70;;;14.03;;
15929;SDS011;8064;51.142;4.780;2023-01-24T02:10:05;15.60;;;13.10;;
15929;SDS011;8064;51.142;4.780;2023-01-24T02:12:32;15.80;;;12.87;;
15929;SDS011;8064;51.142;4.780;2023-01-24T02:15:07;15.93;;;13.10;;
15929;SDS011;8064;51.142;4.780;2023-01-24T02:17:54;16.73;;;13.50;;
15929;SDS011;8064;51.142;4.780;2023-01-24T02:28:33;16.50;;;12.63;;
15929;SDS011;8064;51.142;4.780;2023-01-24T02:31:00;14.67;;;12.57;;
15929;SDS011;8064;51.142;4.780;2023-01-24T02:33:27;14.67;;;12.40;;
15929;SDS011;8064;51.142;4.780;2023-01-24T02:36:06;16.67;;;13.00;;
15929;SDS011;8064;51.142;4.780;2023-01-24T02:38:36;15.40;;;12.87;;
15929;SDS011;8064;51.142;4.780;2023-01-24T02:41:03;16.30;;;12.53;;
15929;SDS011;8064;51.142;4.780;2023-01-24T02:43:31;13.87;;;12.20;;
15929;SDS011;8064;51.142;4.780;2023-01-24T02:46:00;14.63;;;12.40;;
15929;SDS011;8064;51.142;4.780;2023-01-24T02:48:26;14.47;;;12.33;;
15929;SDS011;8064;51.142;4.780;2023-01-24T02:50:52;15.00;;;12.43;;
15929;SDS011;8064;51.142;4.780;2023-01-24T02:53:36;15.73;;;12.80;;
15929;SDS011;8064;51.142;4.780;2023-01-24T02:56:05;13.23;;;11.23;;
15929;SDS011;8064;51.142;4.780;2023-01-24T02:58:51;14.03;;;11.97;;
15929;SDS011;8064;51.142;4.780;2023-01-24T03:01:18;15.13;;;12.10;;
15929;SDS011;8064;51.142;4.780;2023-01-24T03:03:46;14.30;;;11.53;;
15929;SDS011;8064;51.142;4.780;2023-01-24T03:06:13;14.57;;;11.87;;
15929;SDS011;8064;51.142;4.780;2023-01-24T03:08:40;13.80;;;10.87;;
15929;SDS011;8064;51.142;4.780;2023-01-24T03:11:07;14.57;;;12.13;;
15929;SDS011;8064;51.142;4.780;2023-01-24T03:13:34;13.60;;;11.43;;
15929;SDS011;8064;51.142;4.780;2023-01-24T03:16:18;14.27;;;11.17;;
15929;SDS011;8064;51.142;4.780;2023-01-24T03:19:03;12.70;;;11.03;;
15929;SDS011;8064;51.142;4.780;2023-01-24T03:21:48;13.80;;;11.13;;
15929;SDS011;8064;51.142;4.780;2023-01-24T03:24:32;14.57;;;11.13;;
15929;SDS011;8064;51.142;4.780;2023-01-24T03:27:16;14.87;;;11.40;;
15929;SDS011;8064;51.142;4.780;2023-01-24T03:30:01;14.00;;;11.87;;
15929;SDS011;8064;51.142;4.780;2023-01-24T03:32:46;14.50;;;12.00;;
15929;SDS011;8064;51.142;4.780;2023-01-24T03:35:31;15.07;;;11.73;;
15929;SDS011;8064;51.142;4.780;2023-01-24T03:37:56;14.30;;;12.10;;
15929;SDS011;8064;51.142;4.780;2023-01-24T03:40:41;13.07;;;10.90;;
15929;SDS011;8064;51.142;4.780;2023-01-24T03:43:07;14.00;;;11.93;;
15929;SDS011;8064;51.142;4.780;2023-01-24T03:45:33;13.83;;;11.70;;
15929;SDS011;8064;51.142;4.780;2023-01-24T03:48:02;14.70;;;11.77;;
15929;SDS011;8064;51.142;4.780;2023-01-24T03:50:36;14.13;;;11.27;;
15929;SDS011;8064;51.142;4.780;2023-01-24T03:53:22;13.17;;;11.23;;
15929;SDS011;8064;51.142;4.780;2023-01-24T03:55:52;13.30;;;11.90;;
15929;SDS011;8064;51.142;4.780;2023-01-24T03:58:20;15.10;;;12.57;;
15929;SDS011;8064;51.142;4.780;2023-01-24T04:00:46;15.63;;;12.40;;
15929;SDS011;8064;51.142;4.780;2023-01-24T04:03:12;14.07;;;11.53;;
15929;SDS011;8064;51.142;4.780;2023-01-24T04:05:38;14.53;;;11.50;;
15929;SDS011;8064;51.142;4.780;2023-01-24T04:08:04;14.77;;;12.17;;
15929;SDS011;8064;51.142;4.780;2023-01-24T04:10:30;14.47;;;12.13;;
15929;SDS011;8064;51.142;4.780;2023-01-24T04:12:56;14.10;;;11.87;;
15929;SDS011;8064;51.142;4.780;2023-01-24T04:15:27;14.53;;;12.40;;
15929;SDS011;8064;51.142;4.780;2023-01-24T04:17:54;15.67;;;12.80;;
15929;SDS011;8064;51.142;4.780;2023-01-24T04:20:21;16.00;;;13.17;;
15929;SDS011;8064;51.142;4.780;2023-01-24T04:22:47;18.07;;;13.73;;
15929;SDS011;8064;51.142;4.780;2023-01-24T04:25:13;15.87;;;12.30;;
15929;SDS011;8064;51.142;4.780;2023-01-24T04:27:39;15.30;;;12.90;;
15929;SDS011;8064;51.142;4.780;2023-01-24T04:30:06;16.80;;;12.73;;
15929;SDS011;8064;51.142;4.780;2023-01-24T04:32:33;16.07;;;13.30;;
15929;SDS011;8064;51.142;4.780;2023-01-24T04:34:59;15.07;;;12.23;;
15929;SDS011;8064;51.142;4.780;2023-01-24T04:37:26;16.63;;;12.90;;
15929;SDS011;8064;51.142;4.780;2023-01-24T04:39:51;16.23;;;13.13;;
15929;SDS011;8064;51.142;4.780;2023-01-24T04:42:17;17.03;;;14.10;;
15929;SDS011;8064;51.142;4.780;2023-01-24T04:44:43;17.07;;;14.37;;
15929;SDS011;8064;51.142;4.780;2023-01-24T04:47:09;16.03;;;13.73;;
15929;SDS011;8064;51.142;4.780;2023-01-24T04:49:34;16.97;;;14.37;;
15929;SDS011;8064;51.142;4.780;2023-01-24T04:52:00;16.70;;;13.40;;
15929;SDS011;8064;51.142;4.780;2023-01-24T04:54:26;18.27;;;13.93;;
15929;SDS011;8064;51.142;4.780;2023-01-24T04:56:52;16.93;;;13.33;;
15929;SDS011;8064;51.142;4.780;2023-01-24T04:59:17;17.23;;;13.47;;
15929;SDS011;8064;51.142;4.780;2023-01-24T05:01:43;16.97;;;13.63;;
15929;SDS011;8064;51.142;4.780;2023-01-24T05:04:09;16.67;;;13.07;;
15929;SDS011;8064;51.142;4.780;2023-01-24T05:06:35;16.07;;;13.50;;
15929;SDS011;8064;51.142;4.780;2023-01-24T05:09:02;16.03;;;13.10;;
15929;SDS011;8064;51.142;4.780;2023-01-24T05:11:28;19.27;;;13.83;;
15929;SDS011;8064;51.142;4.780;2023-01-24T05:13:54;17.50;;;14.07;;
15929;SDS011;8064;51.142;4.780;2023-01-24T05:16:19;18.40;;;14.80;;
15929;SDS011;8064;51.142;4.780;2023-01-24T05:18:45;18.40;;;13.87;;
15929;SDS011;8064;51.142;4.780;2023-01-24T05:21:12;18.10;;;14.47;;
15929;SDS011;8064;51.142;4.780;2023-01-24T05:23:40;18.20;;;14.63;;
15929;SDS011;8064;51.142;4.780;2023-01-24T05:26:06;17.87;;;14.17;;
15929;SDS011;8064;51.142;4.780;2023-01-24T05:28:32;19.90;;;14.47;;
15929;SDS011;8064;51.142;4.780;2023-01-24T05:31:00;17.03;;;14.13;;
15929;SDS011;8064;51.142;4.780;2023-01-24T05:33:28;18.23;;;14.53;;
15929;SDS011;8064;51.142;4.780;2023-01-24T05:35:58;17.60;;;14.60;;
15929;SDS011;8064;51.142;4.780;2023-01-24T05:38:27;20.00;;;15.17;;
15929;SDS011;8064;51.142;4.780;2023-01-24T05:40:53;19.80;;;15.80;;
15929;SDS011;8064;51.142;4.780;2023-01-24T05:43:18;19.47;;;15.33;;
15929;SDS011;8064;51.142;4.780;2023-01-24T05:45:44;21.10;;;16.07;;
15929;SDS011;8064;51.142;4.780;2023-01-24T05:48:10;18.27;;;15.10;;
15929;SDS011;8064;51.142;4.780;2023-01-24T05:50:36;21.77;;;16.43;;
15929;SDS011;8064;51.142;4.780;2023-01-24T05:53:02;20.07;;;15.63;;
15929;SDS011;8064;51.142;4.780;2023-01-24T05:55:28;19.87;;;16.00;;
15929;SDS011;8064;51.142;4.780;2023-01-24T05:57:54;21.87;;;16.60;;
15929;SDS011;8064;51.142;4.780;2023-01-24T06:00:20;18.70;;;14.87;;
15929;SDS011;8064;51.142;4.780;2023-01-24T06:02:46;20.50;;;15.77;;
15929;SDS011;8064;51.142;4.780;2023-01-24T06:05:11;18.60;;;15.13;;
15929;SDS011;8064;51.142;4.780;2023-01-24T06:07:37;19.97;;;15.63;;
15929;SDS011;8064;51.142;4.780;2023-01-24T06:10:03;20.63;;;15.43;;
15929;SDS011;8064;51.142;4.780;2023-01-24T06:12:29;20.07;;;16.60;;
15929;SDS011;8064;51.142;4.780;2023-01-24T06:14:54;21.13;;;17.20;;
15929;SDS011;8064;51.142;4.780;2023-01-24T06:17:20;21.77;;;17.43;;
15929;SDS011;8064;51.142;4.780;2023-01-24T06:19:46;18.93;;;15.37;;
15929;SDS011;8064;51.142;4.780;2023-01-24T06:22:22;22.60;;;17.60;;
15929;SDS011;8064;51.142;4.780;2023-01-24T06:25:02;24.90;;;18.13;;
15929;SDS011;8064;51.142;4.780;2023-01-24T06:27:28;23.20;;;17.70;;
15929;SDS011;8064;51.142;4.780;2023-01-24T06:29:53;21.60;;;16.73;;
15929;SDS011;8064;51.142;4.780;2023-01-24T06:32:38;21.60;;;17.17;;
15929;SDS011;8064;51.142;4.780;2023-01-24T06:35:36;20.53;;;16.80;;
15929;SDS011;8064;51.142;4.780;2023-01-24T06:38:17;22.93;;;16.90;;
15929;SDS011;8064;51.142;4.780;2023-01-24T06:40:45;19.27;;;15.23;;
15929;SDS011;8064;51.142;4.780;2023-01-24T06:43:11;20.13;;;17.00;;
15929;SDS011;8064;51.142;4.780;2023-01-24T06:45:37;22.67;;;17.70;;
15929;SDS011;8064;51.142;4.780;2023-01-24T06:48:03;22.30;;;18.40;;
15929;SDS011;8064;51.142;4.780;2023-01-24T06:50:29;22.97;;;18.30;;
15929;SDS011;8064;51.142;4.780;2023-01-24T06:52:56;20.63;;;17.27;;
15929;SDS011;8064;51.142;4.780;2023-01-24T06:55:22;22.63;;;18.17;;
15929;SDS011;8064;51.142;4.780;2023-01-24T06:57:55;20.03;;;16.50;;
15929;SDS011;8064;51.142;4.780;2023-01-24T07:00:21;21.00;;;17.17;;
15929;SDS011;8064;51.142;4.780;2023-01-24T07:02:47;19.53;;;15.93;;
15929;SDS011;8064;51.142;4.780;2023-01-24T07:05:12;21.23;;;16.53;;
15929;SDS011;8064;51.142;4.780;2023-01-24T07:07:38;20.43;;;15.80;;
15929;SDS011;8064;51.142;4.780;2023-01-24T07:10:04;20.40;;;16.63;;
15929;SDS011;8064;51.142;4.780;2023-01-24T07:12:30;18.97;;;15.80;;
15929;SDS011;8064;51.142;4.780;2023-01-24T07:14:56;20.13;;;15.90;;
15929;SDS011;8064;51.142;4.780;2023-01-24T07:17:22;19.87;;;15.93;;
15929;SDS011;8064;51.142;4.780;2023-01-24T07:19:48;20.20;;;15.20;;
15929;SDS011;8064;51.142;4.780;2023-01-24T07:22:15;24.07;;;17.87;;
15929;SDS011;8064;51.142;4.780;2023-01-24T07:24:41;23.43;;;19.07;;
15929;SDS011;8064;51.142;4.780;2023-01-24T07:27:08;19.27;;;16.27;;
15929;SDS011;8064;51.142;4.780;2023-01-24T07:29:34;21.60;;;17.13;;
15929;SDS011;8064;51.142;4.780;2023-01-24T07:31:59;23.67;;;17.37;;
15929;SDS011;8064;51.142;4.780;2023-01-24T07:34:25;20.97;;;17.03;;
15929;SDS011;8064;51.142;4.780;2023-01-24T07:36:51;20.33;;;17.33;;
15929;SDS011;8064;51.142;4.780;2023-01-24T07:39:18;28.03;;;20.50;;
15929;SDS011;8064;51.142;4.780;2023-01-24T07:41:45;23.30;;;17.83;;
15929;SDS011;8064;51.142;4.780;2023-01-24T07:44:12;21.27;;;17.07;;
15929;SDS011;8064;51.142;4.780;2023-01-24T07:46:38;19.37;;;16.17;;
15929;SDS011;8064;51.142;4.780;2023-01-24T07:49:04;20.57;;;16.47;;
15929;SDS011;8064;51.142;4.780;2023-01-24T07:51:30;18.57;;;15.53;;
15929;SDS011;8064;51.142;4.780;2023-01-24T07:53:56;19.53;;;16.03;;
15929;SDS011;8064;51.142;4.780;2023-01-24T07:56:21;20.37;;;16.77;;
15929;SDS011;8064;51.142;4.780;2023-01-24T07:58:47;18.57;;;16.57;;
15929;SDS011;8064;51.142;4.780;2023-01-24T08:01:20;21.30;;;16.73;;
15929;SDS011;8064;51.142;4.780;2023-01-24T08:03:47;18.57;;;16.07;;
15929;SDS011;8064;51.142;4.780;2023-01-24T08:06:14;19.07;;;15.40;;
15929;SDS011;8064;51.142;4.780;2023-01-24T08:08:40;17.30;;;15.17;;
15929;SDS011;8064;51.142;4.780;2023-01-24T08:11:06;18.53;;;14.93;;
15929;SDS011;8064;51.142;4.780;2023-01-24T08:13:32;17.93;;;14.73;;
15929;SDS011;8064;51.142;4.780;2023-01-24T08:16:01;19.13;;;14.53;;
15929;SDS011;8064;51.142;4.780;2023-01-24T08:18:27;19.60;;;14.80;;
15929;SDS011;8064;51.142;4.780;2023-01-24T08:20:56;17.67;;;14.30;;
15929;SDS011;8064;51.142;4.780;2023-01-24T08:23:22;17.63;;;14.27;;
15929;SDS011;8064;51.142;4.780;2023-01-24T08:25:48;16.60;;;14.07;;
15929;SDS011;8064;51.142;4.780;2023-01-24T08:28:14;18.63;;;14.90;;
15929;SDS011;8064;51.142;4.780;2023-01-24T08:30:40;23.57;;;19.13;;
15929;SDS011;8064;51.142;4.780;2023-01-24T08:33:06;17.67;;;14.90;;
15929;SDS011;8064;51.142;4.780;2023-01-24T08:35:32;17.20;;;14.03;;
15929;SDS011;8064;51.142;4.780;2023-01-24T08:37:58;17.53;;;14.07;;
15929;SDS011;8064;51.142;4.780;2023-01-24T08:40:24;18.40;;;14.73;;
15929;SDS011;8064;51.142;4.780;2023-01-24T08:42:50;17.07;;;13.70;;
15929;SDS011;8064;51.142;4.780;2023-01-24T08:45:16;17.20;;;14.07;;
15929;SDS011;8064;51.142;4.780;2023-01-24T08:47:44;17.90;;;14.20;;
15929;SDS011;8064;51.142;4.780;2023-01-24T08:50:15;16.17;;;13.20;;
15929;SDS011;8064;51.142;4.780;2023-01-24T08:52:41;17.67;;;13.80;;
15929;SDS011;8064;51.142;4.780;2023-01-24T08:55:07;18.00;;;14.17;;
15929;SDS011;8064;51.142;4.780;2023-01-24T08:57:33;16.70;;;14.00;;
15929;SDS011;8064;51.142;4.780;2023-01-24T08:59:58;15.83;;;13.57;;
15929;SDS011;8064;51.142;4.780;2023-01-24T09:02:24;16.53;;;13.97;;
15929;SDS011;8064;51.142;4.780;2023-01-24T09:04:50;16.67;;;12.83;;
15929;SDS011;8064;51.142;4.780;2023-01-24T09:07:15;19.63;;;14.07;;
15929;SDS011;8064;51.142;4.780;2023-01-24T09:09:41;16.07;;;13.30;;
15929;SDS011;8064;51.142;4.780;2023-01-24T09:12:07;16.47;;;13.70;;
15929;SDS011;8064;51.142;4.780;2023-01-24T09:14:33;16.77;;;13.63;;
15929;SDS011;8064;51.142;4.780;2023-01-24T09:16:59;16.10;;;13.50;;
15929;SDS011;8064;51.142;4.780;2023-01-24T09:19:24;16.33;;;13.83;;
15929;SDS011;8064;51.142;4.780;2023-01-24T09:21:51;14.77;;;12.23;;
15929;SDS011;8064;51.142;4.780;2023-01-24T09:24:21;16.80;;;13.73;;
15929;SDS011;8064;51.142;4.780;2023-01-24T09:26:47;15.53;;;13.30;;
15929;SDS011;8064;51.142;4.780;2023-01-24T09:29:13;15.67;;;13.40;;
15929;SDS011;8064;51.142;4.780;2023-01-24T09:31:39;17.63;;;14.07;;
15929;SDS011;8064;51.142;4.780;2023-01-24T09:34:04;15.50;;;13.40;;
15929;SDS011;8064;51.142;4.780;2023-01-24T09:36:30;17.53;;;13.87;;
15929;SDS011;8064;51.142;4.780;2023-01-24T09:38:56;15.23;;;13.07;;
15929;SDS011;8064;51.142;4.780;2023-01-24T09:50:18;16.47;;;13.80;;
15929;SDS011;8064;51.142;4.780;2023-01-24T09:52:52;16.60;;;13.77;;
15929;SDS011;8064;51.142;4.780;2023-01-24T09:55:40;22.30;;;17.23;;
15929;SDS011;8064;51.142;4.780;2023-01-24T09:58:17;15.77;;;13.23;;
15929;SDS011;8064;51.142;4.780;2023-01-24T10:00:51;15.90;;;13.27;;
15929;SDS011;8064;51.142;4.780;2023-01-24T10:03:21;15.70;;;13.83;;
15929;SDS011;8064;51.142;4.780;2023-01-24T10:05:52;16.63;;;14.00;;
15929;SDS011;8064;51.142;4.780;2023-01-24T10:11:24;17.53;;;14.03;;
15929;SDS011;8064;51.142;4.780;2023-01-24T10:19:59;17.27;;;13.20;;
15929;SDS011;8064;51.142;4.780;2023-01-24T10:31:05;16.63;;;13.27;;
15929;SDS011;8064;51.142;4.780;2023-01-24T10:33:37;15.87;;;12.90;;
15929;SDS011;8064;51.142;4.780;2023-01-24T10:38:53;15.67;;;12.93;;
15929;SDS011;8064;51.142;4.780;2023-01-24T10:41:20;16.37;;;13.10;;
15929;SDS011;8064;51.142;4.780;2023-01-24T10:43:59;16.47;;;14.00;;
15929;SDS011;8064;51.142;4.780;2023-01-24T10:49:17;20.00;;;15.07;;
15929;SDS011;8064;51.142;4.780;2023-01-24T10:52:07;17.23;;;13.63;;
15929;SDS011;8064;51.142;4.780;2023-01-24T10:54:47;22.03;;;13.83;;
15929;SDS011;8064;51.142;4.780;2023-01-24T11:00:57;16.60;;;13.30;;
15929;SDS011;8064;51.142;4.780;2023-01-24T11:03:19;18.17;;;14.33;;
15929;SDS011;8064;51.142;4.780;2023-01-24T11:05:50;16.23;;;14.30;;
15929;SDS011;8064;51.142;4.780;2023-01-24T11:08:20;19.17;;;14.37;;
15929;SDS011;8064;51.142;4.780;2023-01-24T11:10:55;16.27;;;13.43;;
15929;SDS011;8064;51.142;4.780;2023-01-24T11:15:53;18.10;;;14.10;;
15929;SDS011;8064;51.142;4.780;2023-01-24T11:18:27;20.97;;;13.67;;
15929;SDS011;8064;51.142;4.780;2023-01-24T11:21:06;16.27;;;13.67;;
15929;SDS011;8064;51.142;4.780;2023-01-24T11:23:33;16.63;;;13.83;;
15929;SDS011;8064;51.142;4.780;2023-01-24T11:26:00;15.93;;;13.30;;
15929;SDS011;8064;51.142;4.780;2023-01-24T11:28:28;18.70;;;14.03;;
15929;SDS011;8064;51.142;4.780;2023-01-24T11:31:00;16.80;;;14.23;;
15929;SDS011;8064;51.142;4.780;2023-01-24T11:39:41;16.63;;;13.20;;
15929;SDS011;8064;51.142;4.780;2023-01-24T11:48:25;17.27;;;13.87;;
15929;SDS011;8064;51.142;4.780;2023-01-24T11:51:05;16.80;;;13.93;;
15929;SDS011;8064;51.142;4.780;2023-01-24T11:56:24;17.57;;;15.40;;
15929;SDS011;8064;51.142;4.780;2023-01-24T11:59:09;18.73;;;15.53;;
15929;SDS011;8064;51.142;4.780;2023-01-24T12:04:42;20.43;;;15.30;;
15929;SDS011;8064;51.142;4.780;2023-01-24T12:07:41;17.77;;;14.93;;
15929;SDS011;8064;51.142;4.780;2023-01-24T12:10:30;19.30;;;15.13;;
15929;SDS011;8064;51.142;4.780;2023-01-24T12:13:51;18.13;;;14.83;;
15929;SDS011;8064;51.142;4.780;2023-01-24T12:21:50;17.63;;;15.03;;
15929;SDS011;8064;51.142;4.780;2023-01-24T12:24:24;16.27;;;14.53;;
15929;SDS011;8064;51.142;4.780;2023-01-24T12:27:01;18.57;;;15.63;;
15929;SDS011;8064;51.142;4.780;2023-01-24T12:29:33;17.03;;;14.90;;
15929;SDS011;8064;51.142;4.780;2023-01-24T12:34:52;17.83;;;15.27;;
15929;SDS011;8064;51.142;4.780;2023-01-24T12:37:46;18.17;;;15.57;;
15929;SDS011;8064;51.142;4.780;2023-01-24T12:40:26;19.17;;;16.43;;
15929;SDS011;8064;51.142;4.780;2023-01-24T12:43:22;20.17;;;16.93;;
15929;SDS011;8064;51.142;4.780;2023-01-24T12:46:01;19.80;;;17.43;;
15929;SDS011;8064;51.142;4.780;2023-01-24T12:48:35;19.30;;;16.27;;
15929;SDS011;8064;51.142;4.780;2023-01-24T12:51:30;20.07;;;16.47;;
15929;SDS011;8064;51.142;4.780;2023-01-24T12:54:19;17.83;;;15.97;;
15929;SDS011;8064;51.142;4.780;2023-01-24T12:59:30;20.37;;;18.17;;
15929;SDS011;8064;51.142;4.780;2023-01-24T13:07:26;21.33;;;18.87;;
15929;SDS011;8064;51.142;4.780;2023-01-24T13:12:29;21.30;;;18.03;;
15929;SDS011;8064;51.142;4.780;2023-01-24T13:15:14;20.57;;;18.33;;
15929;SDS011;8064;51.142;4.780;2023-01-24T13:27:03;26.20;;;19.20;;
15929;SDS011;8064;51.142;4.780;2023-01-24T13:32:17;22.20;;;19.57;;
15929;SDS011;8064;51.142;4.780;2023-01-24T13:34:49;23.30;;;19.50;;
15929;SDS011;8064;51.142;4.780;2023-01-24T13:37:20;21.53;;;19.07;;
15929;SDS011;8064;51.142;4.780;2023-01-24T13:39:47;22.03;;;19.67;;
15929;SDS011;8064;51.142;4.780;2023-01-24T13:42:31;20.80;;;18.57;;
15929;SDS011;8064;51.142;4.780;2023-01-24T13:45:47;23.77;;;19.23;;
15929;SDS011;8064;51.142;4.780;2023-01-24T13:47:47;20.67;;;17.93;;
15929;SDS011;8064;51.142;4.780;2023-01-24T13:50:15;21.83;;;18.90;;
15929;SDS011;8064;51.142;4.780;2023-01-24T13:52:46;20.13;;;17.93;;
15929;SDS011;8064;51.142;4.780;2023-01-24T13:57:49;20.73;;;18.10;;
15929;SDS011;8064;51.142;4.780;2023-01-24T14:03:18;23.70;;;19.50;;
15929;SDS011;8064;51.142;4.780;2023-01-24T14:06:04;25.23;;;19.87;;
15929;SDS011;8064;51.142;4.780;2023-01-24T14:08:39;23.70;;;19.67;;
15929;SDS011;8064;51.142;4.780;2023-01-24T14:11:14;25.93;;;18.50;;
15929;SDS011;8064;51.142;4.780;2023-01-24T14:18:57;23.20;;;19.27;;
15929;SDS011;8064;51.142;4.780;2023-01-24T14:21:53;22.90;;;19.57;;
15929;SDS011;8064;51.142;4.780;2023-01-24T14:27:16;26.00;;;21.57;;
15929;SDS011;8064;51.142;4.780;2023-01-24T14:29:45;33.37;;;22.03;;
15929;SDS011;8064;51.142;4.780;2023-01-24T14:37:47;28.43;;;21.40;;
15929;SDS011;8064;51.142;4.780;2023-01-24T14:42:43;25.63;;;20.93;;
15929;SDS011;8064;51.142;4.780;2023-01-24T14:45:12;25.23;;;21.30;;
15929;SDS011;8064;51.142;4.780;2023-01-24T14:47:46;25.93;;;21.17;;
15929;SDS011;8064;51.142;4.780;2023-01-24T14:50:21;25.67;;;20.87;;
15929;SDS011;8064;51.142;4.780;2023-01-24T14:52:50;25.10;;;21.33;;
15929;SDS011;8064;51.142;4.780;2023-01-24T14:55:51;27.10;;;23.03;;
15929;SDS011;8064;51.142;4.780;2023-01-24T14:58:22;32.03;;;23.60;;
15929;SDS011;8064;51.142;4.780;2023-01-24T15:01:00;29.83;;;23.10;;
15929;SDS011;8064;51.142;4.780;2023-01-24T15:03:30;26.13;;;21.53;;
15929;SDS011;8064;51.142;4.780;2023-01-24T15:06:02;30.87;;;23.07;;
15929;SDS011;8064;51.142;4.780;2023-01-24T15:08:33;27.90;;;23.20;;
15929;SDS011;8064;51.142;4.780;2023-01-24T15:11:04;27.40;;;23.20;;
15929;SDS011;8064;51.142;4.780;2023-01-24T15:13:47;26.00;;;22.13;;
15929;SDS011;8064;51.142;4.780;2023-01-24T15:16:21;29.97;;;24.03;;
15929;SDS011;8064;51.142;4.780;2023-01-24T15:19:09;29.77;;;24.07;;
15929;SDS011;8064;51.142;4.780;2023-01-24T15:21:51;28.03;;;22.70;;
15929;SDS011;8064;51.142;4.780;2023-01-24T15:24:27;26.90;;;22.47;;
15929;SDS011;8064;51.142;4.780;2023-01-24T15:26:55;28.23;;;23.53;;
15929;SDS011;8064;51.142;4.780;2023-01-24T15:32:18;27.77;;;23.20;;
15929;SDS011;8064;51.142;4.780;2023-01-24T15:34:47;31.27;;;22.47;;
15929;SDS011;8064;51.142;4.780;2023-01-24T15:37:13;30.23;;;24.00;;
15929;SDS011;8064;51.142;4.780;2023-01-24T15:39:39;30.77;;;23.33;;
15929;SDS011;8064;51.142;4.780;2023-01-24T15:42:16;27.23;;;23.17;;
15929;SDS011;8064;51.142;4.780;2023-01-24T15:45:02;30.80;;;25.07;;
15929;SDS011;8064;51.142;4.780;2023-01-24T15:47:29;29.83;;;23.63;;
15929;SDS011;8064;51.142;4.780;2023-01-24T15:50:20;31.67;;;24.53;;
15929;SDS011;8064;51.142;4.780;2023-01-24T15:53:17;30.70;;;24.17;;
15929;SDS011;8064;51.142;4.780;2023-01-24T15:55:55;33.57;;;25.50;;
15929;SDS011;8064;51.142;4.780;2023-01-24T15:58:29;31.07;;;25.80;;
15929;SDS011;8064;51.142;4.780;2023-01-24T16:00:56;29.23;;;25.50;;
15929;SDS011;8064;51.142;4.780;2023-01-24T16:03:24;32.67;;;25.03;;
15929;SDS011;8064;51.142;4.780;2023-01-24T16:05:51;34.80;;;26.23;;
15929;SDS011;8064;51.142;4.780;2023-01-24T16:08:17;31.73;;;25.30;;
15929;SDS011;8064;51.142;4.780;2023-01-24T16:10:43;31.03;;;25.33;;
15929;SDS011;8064;51.142;4.780;2023-01-24T16:13:29;32.10;;;26.70;;
15929;SDS011;8064;51.142;4.780;2023-01-24T16:16:04;36.47;;;28.00;;
15929;SDS011;8064;51.142;4.780;2023-01-24T16:18:32;33.23;;;26.40;;
15929;SDS011;8064;51.142;4.780;2023-01-24T16:20:58;34.47;;;26.17;;
15929;SDS011;8064;51.142;4.780;2023-01-24T16:23:24;31.80;;;27.30;;
15929;SDS011;8064;51.142;4.780;2023-01-24T16:25:51;35.13;;;27.20;;
15929;SDS011;8064;51.142;4.780;2023-01-24T16:28:23;31.20;;;27.73;;
15929;SDS011;8064;51.142;4.780;2023-01-24T16:30:52;33.57;;;27.57;;
15929;SDS011;8064;51.142;4.780;2023-01-24T16:33:24;33.67;;;26.77;;
15929;SDS011;8064;51.142;4.780;2023-01-24T16:35:49;35.63;;;28.37;;
15929;SDS011;8064;51.142;4.780;2023-01-24T16:38:15;34.60;;;29.17;;
15929;SDS011;8064;51.142;4.780;2023-01-24T16:40:42;34.83;;;29.20;;
15929;SDS011;8064;51.142;4.780;2023-01-24T16:43:15;33.27;;;28.10;;
15929;SDS011;8064;51.142;4.780;2023-01-24T16:45:47;36.37;;;29.97;;
15929;SDS011;8064;51.142;4.780;2023-01-24T16:48:15;40.47;;;30.70;;
15929;SDS011;8064;51.142;4.780;2023-01-24T16:50:42;35.60;;;29.57;;
15929;SDS011;8064;51.142;4.780;2023-01-24T16:53:09;42.07;;;30.80;;
15929;SDS011;8064;51.142;4.780;2023-01-24T16:55:36;36.37;;;30.53;;